createdAt,value
2022-10-19T00:01:23.729Z,8.65
2022-10-19T00:04:20.575Z,8.66
2022-10-19T00:07:17.568Z,8.63
2022-10-19T00:10:14.516Z,8.57
2022-10-19T00:13:11.400Z,8.72
2022-10-19T00:16:16.279Z,8.69
2022-10-19T00:19:19.150Z,8.54
2022-10-19T00:22:15.998Z,8.52
2022-10-19T00:25:12.830Z,8.54
2022-10-19T00:28:09.751Z,8.49
2022-10-19T00:31:11.078Z,8.27
2022-10-19T00:34:07.981Z,8.30
2022-10-19T00:37:04.875Z,8.34
2022-10-19T00:40:01.794Z,8.41
2022-10-19T00:42:58.648Z,8.34
2022-10-19T00:45:55.501Z,8.24
2022-10-19T00:49:01.216Z,8.32
2022-10-19T00:52:08.025Z,8.50
2022-10-19T00:55:06.993Z,8.58
2022-10-19T00:58:04.416Z,8.55
2022-10-19T01:01:06.032Z,8.59
2022-10-19T01:04:04.599Z,8.54
2022-10-19T01:07:03.572Z,8.61
2022-10-19T01:10:01.709Z,8.60
2022-10-19T01:13:36.475Z,8.70
2022-10-19T01:16:51.216Z,8.60
2022-10-19T01:20:14.787Z,8.47
2022-10-19T01:24:06.044Z,8.44
2022-10-19T01:27:37.702Z,8.47
2022-10-19T01:30:57.777Z,8.38
2022-10-19T01:34:20.854Z,8.34
2022-10-19T01:37:31.790Z,8.49
2022-10-19T01:40:49.254Z,8.49
2022-10-19T01:44:23.328Z,8.51
2022-10-19T01:47:35.518Z,8.43
2022-10-19T01:50:43.244Z,8.38
2022-10-19T01:53:51.061Z,8.31
2022-10-19T01:56:50.957Z,8.32
2022-10-19T01:59:49.121Z,8.29
2022-10-19T02:02:50.508Z,8.16
2022-10-19T02:05:49.345Z,8.19
2022-10-19T02:08:52.744Z,8.20
2022-10-19T02:11:57.317Z,8.08
2022-10-19T02:14:59.085Z,8.13
2022-10-19T02:17:59.835Z,8.19
2022-10-19T02:20:58.143Z,8.25
2022-10-19T02:23:55.142Z,8.20
2022-10-19T02:26:53.657Z,8.21
2022-10-19T02:29:51.254Z,8.16
2022-10-19T02:32:49.436Z,8.06
2022-10-19T02:35:47.966Z,8.24
2022-10-19T02:38:45.077Z,8.27
2022-10-19T02:42:09.872Z,8.24
2022-10-19T02:45:17.419Z,8.45
2022-10-19T02:48:23.769Z,8.32
2022-10-19T02:51:39.117Z,8.23
2022-10-19T02:54:37.179Z,8.39
2022-10-19T02:57:34.449Z,8.23
2022-10-19T03:00:31.478Z,8.28
2022-10-19T03:03:28.300Z,8.12
2022-10-19T03:06:25.169Z,7.92
2022-10-19T03:09:22.006Z,7.91
2022-10-19T03:12:18.915Z,7.95
2022-10-19T03:15:17.737Z,7.84
2022-10-19T03:18:14.589Z,7.92
2022-10-19T03:21:13.689Z,7.85
2022-10-19T03:24:10.564Z,7.98
2022-10-19T03:27:07.380Z,7.92
2022-10-19T03:30:04.638Z,7.97
2022-10-19T03:33:01.464Z,7.86
2022-10-19T03:36:21.612Z,8.10
2022-10-19T03:39:18.480Z,8.32
2022-10-19T03:42:15.295Z,8.17
2022-10-19T03:45:12.101Z,8.11
2022-10-19T03:48:08.919Z,8.09
2022-10-19T03:51:19.027Z,8.23
2022-10-19T03:54:17.080Z,8.25
2022-10-19T03:57:13.935Z,8.35
2022-10-19T04:00:11.769Z,8.38
2022-10-19T04:03:08.605Z,8.42
2022-10-19T04:06:09.581Z,8.51
2022-10-19T04:09:15.248Z,8.61
2022-10-19T04:12:12.064Z,8.48
2022-10-19T04:15:09.692Z,8.53
2022-10-19T04:18:06.571Z,8.62
2022-10-19T04:21:05.843Z,8.60
2022-10-19T04:24:14.811Z,8.58
2022-10-19T04:27:11.667Z,8.62
2022-10-19T04:30:09.033Z,8.48
2022-10-19T04:33:06.026Z,8.57
2022-10-19T04:36:06.410Z,8.56
2022-10-19T04:39:04.898Z,8.62
2022-10-19T04:42:01.716Z,8.53
2022-10-19T04:44:58.612Z,8.59
2022-10-19T04:47:58.601Z,8.64
2022-10-19T04:50:55.935Z,8.53
2022-10-19T04:53:55.631Z,8.54
2022-10-19T04:56:55.452Z,8.48
2022-10-19T04:59:52.307Z,8.60
2022-10-19T05:02:49.148Z,8.65
2022-10-19T05:05:46.021Z,8.61
2022-10-19T05:08:43.028Z,8.54
2022-10-19T05:11:39.971Z,8.58
2022-10-19T05:14:39.097Z,8.55
2022-10-19T05:17:38.781Z,8.59
2022-10-19T05:20:35.603Z,8.48
2022-10-19T05:26:34.792Z,8.52
2022-10-19T05:29:33.828Z,8.44
2022-10-19T05:32:30.788Z,8.44
2022-10-19T05:35:27.609Z,8.40
2022-10-19T05:38:24.443Z,8.36
2022-10-19T05:41:22.812Z,8.35
2022-10-19T05:44:22.971Z,8.23
2022-10-19T05:47:19.793Z,8.28
2022-10-19T05:50:16.740Z,8.12
2022-10-19T05:53:13.556Z,8.17
2022-10-19T05:56:19.387Z,8.05
2022-10-19T05:59:21.574Z,8.09
2022-10-19T06:02:18.385Z,7.85
2022-10-19T06:05:15.316Z,7.87
2022-10-19T06:08:12.130Z,7.86
2022-10-19T06:11:15.955Z,7.90
2022-10-19T06:14:15.258Z,7.78
2022-10-19T06:17:12.127Z,7.75
2022-10-19T06:20:09.617Z,7.82
2022-10-19T06:23:08.322Z,7.81
2022-10-19T06:26:12.449Z,7.74
2022-10-19T06:29:10.101Z,7.62
2022-10-19T06:32:06.915Z,7.72
2022-10-19T06:35:03.902Z,7.79
2022-10-19T06:38:00.886Z,7.76
2022-10-19T06:41:01.278Z,7.89
2022-10-19T06:43:58.921Z,7.87
2022-10-19T06:46:55.738Z,7.86
2022-10-19T06:49:52.559Z,7.79
2022-10-19T06:52:49.412Z,7.76
2022-10-19T06:55:46.227Z,7.66
2022-10-19T06:58:43.506Z,7.85
2022-10-19T07:01:40.376Z,7.78
2022-10-19T07:04:37.294Z,7.98
2022-10-19T07:07:35.183Z,7.93
2022-10-19T07:10:32.205Z,7.96
2022-10-19T07:13:30.491Z,8.04
2022-10-19T07:16:27.321Z,7.96
2022-10-19T07:19:27.132Z,8.12
2022-10-19T07:22:27.973Z,8.08
2022-10-19T07:25:25.405Z,8.26
2022-10-19T07:28:22.668Z,8.35
2022-10-19T07:31:22.770Z,8.44
2022-10-19T07:34:19.652Z,8.50
2022-10-19T07:37:16.476Z,8.52
2022-10-19T07:40:13.530Z,8.50
2022-10-19T07:43:10.351Z,8.67
2022-10-19T07:46:12.828Z,8.60
2022-10-19T07:49:16.174Z,8.66
2022-10-19T07:52:13.145Z,8.70
2022-10-19T07:55:10.256Z,8.61
2022-10-19T07:58:07.102Z,8.62
2022-10-19T08:01:07.714Z,8.45
2022-10-19T08:07:21.539Z,8.66
2022-10-19T08:10:18.372Z,8.72
2022-10-19T08:13:15.326Z,8.84
2022-10-19T08:16:44.231Z,8.83
2022-10-19T08:19:43.433Z,8.83
2022-10-19T08:22:41.878Z,8.93
2022-10-19T08:25:38.686Z,8.98
2022-10-19T08:28:35.530Z,9.04
2022-10-19T08:31:32.882Z,9.08
2022-10-19T08:34:29.707Z,9.19
2022-10-19T08:37:40.773Z,9.36
2022-10-19T08:40:45.475Z,10.17
2022-10-19T08:44:07.717Z,11.78
2022-10-19T08:47:35.722Z,11.00
2022-10-19T08:50:43.826Z,13.06
2022-10-19T08:53:43.575Z,13.29
2022-10-19T08:57:21.793Z,13.81
2022-10-19T09:01:05.199Z,13.21
2022-10-19T09:04:22.777Z,12.74
2022-10-19T09:07:26.632Z,12.98
2022-10-19T09:10:33.990Z,12.31
2022-10-19T09:14:04.085Z,13.27
2022-10-19T09:17:06.765Z,14.01
2022-10-19T09:20:18.078Z,13.58
2022-10-19T09:23:41.220Z,13.57
2022-10-19T09:26:53.813Z,15.56
2022-10-19T09:30:25.663Z,14.28
2022-10-19T09:33:34.881Z,15.11
2022-10-19T09:36:56.934Z,15.30
2022-10-19T09:39:55.776Z,15.90
2022-10-19T09:42:59.333Z,15.87
2022-10-19T09:46:28.463Z,15.27
2022-10-19T09:49:45.559Z,16.87
2022-10-19T09:52:45.358Z,15.85
2022-10-19T09:58:52.346Z,14.46
2022-10-19T10:02:15.443Z,15.96
2022-10-19T10:05:15.316Z,16.26
2022-10-19T10:08:17.081Z,14.17
2022-10-19T10:11:38.124Z,16.77
2022-10-19T10:14:39.630Z,15.66
2022-10-19T10:17:37.312Z,14.72
2022-10-19T10:20:34.207Z,15.25
2022-10-19T10:23:36.246Z,16.21
2022-10-19T10:26:56.320Z,16.56
2022-10-19T10:33:08.095Z,16.70
2022-10-19T10:36:16.214Z,16.60
2022-10-19T10:39:17.422Z,16.51
2022-10-19T10:42:22.406Z,17.83
2022-10-19T10:45:29.129Z,17.72
2022-10-19T10:48:34.859Z,16.48
2022-10-19T10:51:39.336Z,16.88
2022-10-19T10:54:37.145Z,17.36
2022-10-19T10:57:41.752Z,17.06
2022-10-19T11:00:40.451Z,17.39
2022-10-19T11:03:42.626Z,16.77
2022-10-19T11:06:47.578Z,17.26
2022-10-19T11:09:54.432Z,16.56
2022-10-19T11:13:33.275Z,17.61
2022-10-19T11:16:41.912Z,17.16
2022-10-19T11:19:45.128Z,17.09
2022-10-19T11:23:12.667Z,16.92
2022-10-19T11:26:32.704Z,17.31
2022-10-19T11:29:46.355Z,16.94
2022-10-19T11:32:50.273Z,16.81
2022-10-19T11:36:01.994Z,17.60
2022-10-19T11:39:40.233Z,17.25
2022-10-19T11:43:14.392Z,16.77
2022-10-19T11:46:40.057Z,17.50
2022-10-19T11:50:25.046Z,17.40
2022-10-19T11:54:14.612Z,16.77
2022-10-19T11:57:36.953Z,17.63
2022-10-19T12:01:24.396Z,17.95
2022-10-19T12:04:50.269Z,16.60
2022-10-19T12:08:08.963Z,16.47
2022-10-19T12:11:37.358Z,16.62
2022-10-19T12:14:42.935Z,16.28
2022-10-19T12:17:43.899Z,16.93
2022-10-19T12:20:51.731Z,16.15
2022-10-19T12:23:50.126Z,15.21
2022-10-19T12:26:47.706Z,15.97
2022-10-19T12:29:49.471Z,16.33
2022-10-19T12:33:36.931Z,16.39
2022-10-19T12:37:00.763Z,15.75
2022-10-19T12:40:38.261Z,16.70
2022-10-19T12:44:20.676Z,15.98
2022-10-19T12:47:25.707Z,16.39
2022-10-19T12:50:48.261Z,16.05
2022-10-19T12:53:49.202Z,16.15
2022-10-19T12:56:50.157Z,16.76
2022-10-19T12:59:57.722Z,15.57
2022-10-19T13:03:25.151Z,15.91
2022-10-19T13:06:24.345Z,15.56
2022-10-19T13:09:35.379Z,15.24
2022-10-19T13:12:58.388Z,15.23
2022-10-19T13:15:55.310Z,15.44
2022-10-19T13:19:14.447Z,15.52
2022-10-19T13:22:28.615Z,15.32
2022-10-19T13:25:30.219Z,15.10
2022-10-19T13:28:26.912Z,14.87
2022-10-19T13:31:28.984Z,14.80
2022-10-19T13:34:25.860Z,14.82
2022-10-19T13:37:22.813Z,14.84
2022-10-19T13:40:24.460Z,14.49
2022-10-19T13:43:33.239Z,14.35
2022-10-19T13:46:29.965Z,14.34
2022-10-19T13:49:51.354Z,14.33
2022-10-19T13:53:02.214Z,14.10
2022-10-19T13:56:18.508Z,14.01
2022-10-19T13:59:39.219Z,14.13
2022-10-19T14:02:42.104Z,13.84
2022-10-19T14:05:55.762Z,13.89
2022-10-19T14:09:23.830Z,13.52
2022-10-19T14:12:30.463Z,13.33
2022-10-19T14:15:31.676Z,13.41
2022-10-19T14:18:36.849Z,13.32
2022-10-19T14:21:36.982Z,13.29
2022-10-19T14:24:36.131Z,13.03
2022-10-19T14:27:35.186Z,13.05
2022-10-19T14:30:35.463Z,12.86
2022-10-19T14:33:39.491Z,12.83
2022-10-19T14:36:46.470Z,12.91
2022-10-19T14:39:56.710Z,12.69
2022-10-19T14:42:54.027Z,12.72
2022-10-19T14:46:08.372Z,12.48
2022-10-19T14:49:06.102Z,12.44
2022-10-19T14:52:03.998Z,12.63
2022-10-19T14:55:08.551Z,12.20
2022-10-19T14:58:15.667Z,12.25
2022-10-19T15:01:12.901Z,12.23
2022-10-19T15:04:09.856Z,12.28
2022-10-19T15:07:33.728Z,12.01
2022-10-19T15:10:45.648Z,11.93
2022-10-19T15:13:43.043Z,11.91
2022-10-19T15:16:39.784Z,11.51
2022-10-19T15:19:36.516Z,11.58
2022-10-19T15:22:33.432Z,11.55
2022-10-19T15:25:37.107Z,11.36
2022-10-19T15:28:40.786Z,11.12
2022-10-19T15:31:38.916Z,11.11
2022-10-19T15:34:35.964Z,11.09
2022-10-19T15:37:33.084Z,10.81
2022-10-19T15:40:36.142Z,10.68
2022-10-19T15:43:44.341Z,10.70
2022-10-19T15:46:46.989Z,10.59
2022-10-19T15:49:44.360Z,10.79
2022-10-19T15:52:41.199Z,10.36
2022-10-19T15:55:38.024Z,10.44
2022-10-19T15:58:34.821Z,10.36
2022-10-19T16:01:33.039Z,10.16
2022-10-19T16:04:29.876Z,10.01
2022-10-19T16:07:34.297Z,9.94
2022-10-19T16:10:31.385Z,9.89
2022-10-19T16:13:28.193Z,9.81
2022-10-19T16:16:33.952Z,9.74
2022-10-19T16:19:30.792Z,9.57
2022-10-19T16:22:27.683Z,9.53
2022-10-19T16:25:24.613Z,9.49
2022-10-19T16:28:21.558Z,9.22
2022-10-19T16:31:19.140Z,9.31
2022-10-19T16:34:15.984Z,9.31
2022-10-19T16:37:13.565Z,9.36
2022-10-19T16:40:11.179Z,9.09
2022-10-19T16:43:08.765Z,9.02
2022-10-19T16:46:11.719Z,9.04
2022-10-19T16:49:08.576Z,8.69
2022-10-19T16:52:06.216Z,8.40
2022-10-19T16:55:03.434Z,8.61
2022-10-19T16:58:00.227Z,8.71
2022-10-19T17:01:01.307Z,8.54
2022-10-19T17:03:58.710Z,8.72
2022-10-19T17:06:55.595Z,8.60
2022-10-19T17:09:54.938Z,8.50
2022-10-19T17:12:52.092Z,8.38
2022-10-19T17:15:49.049Z,8.24
2022-10-19T17:18:49.135Z,8.40
2022-10-19T17:21:45.973Z,8.20
2022-10-19T17:24:42.796Z,7.94
2022-10-19T17:27:39.598Z,8.14
2022-10-19T17:30:42.119Z,8.14
2022-10-19T17:33:41.404Z,8.17
2022-10-19T17:36:44.300Z,7.96
2022-10-19T17:39:41.243Z,8.06
2022-10-19T17:42:38.186Z,8.02
2022-10-19T17:45:35.108Z,7.78
2022-10-19T17:48:34.247Z,7.77
2022-10-19T17:51:34.181Z,7.90
2022-10-19T17:54:36.266Z,7.58
2022-10-19T17:57:40.781Z,7.72
2022-10-19T18:00:39.447Z,7.57
2022-10-19T18:03:38.526Z,7.45
2022-10-19T18:06:37.115Z,7.34
2022-10-19T18:09:33.957Z,7.40
2022-10-19T18:12:30.876Z,7.32
2022-10-19T18:15:27.716Z,7.43
2022-10-19T18:18:24.575Z,7.34
2022-10-19T18:21:31.262Z,7.60
2022-10-19T18:24:31.071Z,7.62
2022-10-19T18:27:28.020Z,7.16
2022-10-19T18:30:24.832Z,7.09
2022-10-19T18:33:23.328Z,7.10
2022-10-19T18:36:20.386Z,7.13
2022-10-19T18:39:18.418Z,7.20
2022-10-19T18:42:16.390Z,7.18
2022-10-19T18:45:13.307Z,7.33
2022-10-19T18:48:10.132Z,6.75
2022-10-19T18:51:08.503Z,6.94
2022-10-19T18:54:05.792Z,6.79
2022-10-19T18:57:02.754Z,6.54
2022-10-19T18:59:59.763Z,6.55
2022-10-19T19:02:56.716Z,6.76
2022-10-19T19:05:54.025Z,6.51
2022-10-19T19:08:54.219Z,6.67
2022-10-19T19:11:51.583Z,6.88
2022-10-19T19:14:48.880Z,6.91
2022-10-19T19:17:45.928Z,6.81
2022-10-19T19:20:42.767Z,6.91
2022-10-19T19:23:39.624Z,6.82
2022-10-19T19:26:41.106Z,6.89
2022-10-19T19:29:38.017Z,7.07
2022-10-19T19:32:35.197Z,6.88
2022-10-19T19:35:33.128Z,6.81
2022-10-19T19:38:30.870Z,6.99
2022-10-19T19:41:28.895Z,6.93
2022-10-19T19:44:29.565Z,6.76
2022-10-19T19:47:26.515Z,6.74
2022-10-19T19:50:23.480Z,6.34
2022-10-19T19:53:20.536Z,6.66
2022-10-19T19:56:17.919Z,6.59
2022-10-19T19:59:14.878Z,6.44
2022-10-19T20:02:11.818Z,6.52
2022-10-19T20:05:09.668Z,6.04
2022-10-19T20:08:08.072Z,6.14
2022-10-19T20:11:11.324Z,5.80
2022-10-19T20:14:08.260Z,5.83
2022-10-19T20:17:05.076Z,5.35
2022-10-19T20:20:01.985Z,5.75
2022-10-19T20:22:58.829Z,5.91
2022-10-19T20:25:56.367Z,5.79
2022-10-19T20:28:53.608Z,5.98
2022-10-19T20:31:50.415Z,5.84
2022-10-19T20:34:47.383Z,5.77
2022-10-19T20:37:50.240Z,5.89
2022-10-19T20:40:47.090Z,5.67
2022-10-19T20:43:44.120Z,5.83
2022-10-19T20:46:40.993Z,5.90
2022-10-19T20:49:38.048Z,5.81
2022-10-19T20:52:35.508Z,5.97
2022-10-19T20:55:33.609Z,5.78
2022-10-19T20:58:30.496Z,5.83
2022-10-19T21:01:30.063Z,5.82
2022-10-19T21:04:28.173Z,5.95
2022-10-19T21:07:25.079Z,5.70
2022-10-19T21:10:22.009Z,5.62
2022-10-19T21:13:18.857Z,5.77
2022-10-19T21:16:18.962Z,5.62
2022-10-19T21:19:23.696Z,5.78
2022-10-19T21:22:20.584Z,5.78
2022-10-19T21:25:17.430Z,5.90
2022-10-19T21:28:14.274Z,5.60
2022-10-19T21:31:11.155Z,5.51
2022-10-19T21:34:13.310Z,5.16
2022-10-19T21:37:10.148Z,5.54
2022-10-19T21:40:07.867Z,5.48
2022-10-19T21:43:04.818Z,5.22
2022-10-19T21:46:03.943Z,5.36
2022-10-19T21:49:00.893Z,5.26
2022-10-19T21:51:57.759Z,5.29
2022-10-19T21:54:54.606Z,5.12
2022-10-19T21:57:51.526Z,5.18
2022-10-19T22:00:49.306Z,5.24
2022-10-19T22:03:46.356Z,5.41
2022-10-19T22:06:44.051Z,5.17
2022-10-19T22:09:40.887Z,5.06
2022-10-19T22:12:38.060Z,5.16
2022-10-19T22:15:40.412Z,5.35
2022-10-19T22:18:37.756Z,4.92
2022-10-19T22:21:35.603Z,4.83
2022-10-19T22:24:34.604Z,4.68
2022-10-19T22:27:31.445Z,4.65
2022-10-19T22:30:28.313Z,4.52
2022-10-19T22:33:26.073Z,4.42
2022-10-19T22:36:22.916Z,4.36
2022-10-19T22:39:21.415Z,4.25
2022-10-19T22:42:18.301Z,4.35
2022-10-19T22:45:15.208Z,4.13
2022-10-19T22:48:12.069Z,4.31
2022-10-19T22:51:08.971Z,4.07
2022-10-19T22:54:05.908Z,4.44
2022-10-19T22:57:02.855Z,4.17
2022-10-19T22:59:59.675Z,4.05
2022-10-19T23:02:56.637Z,4.01
2022-10-19T23:05:53.468Z,3.90
2022-10-19T23:08:50.353Z,3.87
2022-10-19T23:11:47.530Z,3.62
2022-10-19T23:14:44.458Z,3.57
2022-10-19T23:17:41.340Z,3.71
2022-10-19T23:20:38.155Z,3.32
2022-10-19T23:23:35.606Z,3.37
2022-10-19T23:26:32.440Z,3.06
2022-10-19T23:29:29.287Z,3.05
2022-10-19T23:32:26.131Z,3.00
2022-10-19T23:35:22.937Z,3.16
2022-10-19T23:38:19.765Z,2.91
2022-10-19T23:41:18.028Z,3.16
2022-10-19T23:44:14.906Z,2.91
2022-10-19T23:47:11.826Z,3.02
2022-10-19T23:50:08.953Z,3.13
2022-10-19T23:53:05.985Z,3.47
2022-10-19T23:56:06.422Z,3.72
2022-10-19T23:59:03.326Z,3.38
